sensor_id;sensor_type;location;lat;lon;timestamp;temperature;humidity
52799;DHT22;38667;42.872;74.622;2023-03-12T00:00:44;13.60;77.20
52799;DHT22;38667;42.872;74.622;2023-03-12T00:03:11;13.70;77.60
52799;DHT22;38667;42.872;74.622;2023-03-12T00:05:37;13.60;77.60
52799;DHT22;38667;42.872;74.622;2023-03-12T00:08:06;13.60;77.60
52799;DHT22;38667;42.872;74.622;2023-03-12T00:10:33;13.50;77.60
52799;DHT22;38667;42.872;74.622;2023-03-12T00:12:59;13.50;77.90
52799;DHT22;38667;42.872;74.622;2023-03-12T00:15:25;13.50;77.60
52799;DHT22;38667;42.872;74.622;2023-03-12T00:17:52;13.40;77.20
52799;DHT22;38667;42.872;74.622;2023-03-12T00:20:19;13.40;77.30
52799;DHT22;38667;42.872;74.622;2023-03-12T00:22:45;13.40;77.10
52799;DHT22;38667;42.872;74.622;2023-03-12T00:25:14;13.40;76.90
52799;DHT22;38667;42.872;74.622;2023-03-12T00:27:41;13.40;77.60
52799;DHT22;38667;42.872;74.622;2023-03-12T00:30:08;13.40;78.20
52799;DHT22;38667;42.872;74.622;2023-03-12T00:32:35;13.40;78.10
52799;DHT22;38667;42.872;74.622;2023-03-12T00:35:02;13.40;78.10
52799;DHT22;38667;42.872;74.622;2023-03-12T00:37:29;13.40;78.20
52799;DHT22;38667;42.872;74.622;2023-03-12T00:39:55;13.50;78.40
52799;DHT22;38667;42.872;74.622;2023-03-12T00:42:23;13.50;78.00
52799;DHT22;38667;42.872;74.622;2023-03-12T00:44:50;13.50;78.10
52799;DHT22;38667;42.872;74.622;2023-03-12T00:47:16;13.40;78.70
52799;DHT22;38667;42.872;74.622;2023-03-12T00:49:42;13.50;79.20
52799;DHT22;38667;42.872;74.622;2023-03-12T00:52:09;13.50;79.60
52799;DHT22;38667;42.872;74.622;2023-03-12T00:54:35;13.50;79.90
52799;DHT22;38667;42.872;74.622;2023-03-12T00:57:01;13.50;80.30
52799;DHT22;38667;42.872;74.622;2023-03-12T00:59:29;13.60;80.60
52799;DHT22;38667;42.872;74.622;2023-03-12T01:01:56;13.50;80.20
52799;DHT22;38667;42.872;74.622;2023-03-12T01:04:22;13.50;80.10
52799;DHT22;38667;42.872;74.622;2023-03-12T01:06:48;13.50;79.80
52799;DHT22;38667;42.872;74.622;2023-03-12T01:09:15;13.50;80.00
52799;DHT22;38667;42.872;74.622;2023-03-12T01:11:41;13.50;79.80
52799;DHT22;38667;42.872;74.622;2023-03-12T01:14:08;13.50;80.50
52799;DHT22;38667;42.872;74.622;2023-03-12T01:16:36;13.60;79.50
52799;DHT22;38667;42.872;74.622;2023-03-12T01:19:03;13.60;78.60
52799;DHT22;38667;42.872;74.622;2023-03-12T01:21:29;13.60;78.50
52799;DHT22;38667;42.872;74.622;2023-03-12T01:23:57;13.60;78.20
52799;DHT22;38667;42.872;74.622;2023-03-12T01:26:23;13.60;78.00
52799;DHT22;38667;42.872;74.622;2023-03-12T01:28:50;13.60;78.10
52799;DHT22;38667;42.872;74.622;2023-03-12T01:31:17;13.60;78.00
52799;DHT22;38667;42.872;74.622;2023-03-12T01:33:47;13.70;78.10
52799;DHT22;38667;42.872;74.622;2023-03-12T01:36:16;13.70;77.90
52799;DHT22;38667;42.872;74.622;2023-03-12T01:38:42;13.70;77.20
52799;DHT22;38667;42.872;74.622;2023-03-12T01:41:09;13.80;77.20
52799;DHT22;38667;42.872;74.622;2023-03-12T01:43:36;13.80;76.80
52799;DHT22;38667;42.872;74.622;2023-03-12T01:46:27;13.80;76.30
52799;DHT22;38667;42.872;74.622;2023-03-12T01:48:58;13.90;76.20
52799;DHT22;38667;42.872;74.622;2023-03-12T01:51:28;13.90;76.20
52799;DHT22;38667;42.872;74.622;2023-03-12T01:53:58;13.90;76.10
52799;DHT22;38667;42.872;74.622;2023-03-12T01:56:26;13.90;76.10
52799;DHT22;38667;42.872;74.622;2023-03-12T01:58:56;13.90;76.80
52799;DHT22;38667;42.872;74.622;2023-03-12T02:01:24;14.00;76.80
52799;DHT22;38667;42.872;74.622;2023-03-12T02:03:53;13.90;76.70
52799;DHT22;38667;42.872;74.622;2023-03-12T02:06:25;14.00;76.20
52799;DHT22;38667;42.872;74.622;2023-03-12T02:08:54;14.00;76.40
52799;DHT22;38667;42.872;74.622;2023-03-12T02:11:20;13.90;76.80
52799;DHT22;38667;42.872;74.622;2023-03-12T02:13:46;13.90;77.40
52799;DHT22;38667;42.872;74.622;2023-03-12T02:16:13;13.80;77.70
52799;DHT22;38667;42.872;74.622;2023-03-12T02:18:39;13.80;77.70
52799;DHT22;38667;42.872;74.622;2023-03-12T02:21:12;13.80;78.20
52799;DHT22;38667;42.872;74.622;2023-03-12T02:23:46;13.80;78.20
52799;DHT22;38667;42.872;74.622;2023-03-12T02:26:18;13.90;78.30
52799;DHT22;38667;42.872;74.622;2023-03-12T02:28:46;13.90;77.80
52799;DHT22;38667;42.872;74.622;2023-03-12T02:31:17;13.90;77.80
52799;DHT22;38667;42.872;74.622;2023-03-12T02:33:44;14.00;77.50
52799;DHT22;38667;42.872;74.622;2023-03-12T02:36:10;14.10;77.10
52799;DHT22;38667;42.872;74.622;2023-03-12T02:38:40;14.20;77.50
52799;DHT22;38667;42.872;74.622;2023-03-12T02:41:15;14.10;78.40
52799;DHT22;38667;42.872;74.622;2023-03-12T02:43:45;14.10;79.10
52799;DHT22;38667;42.872;74.622;2023-03-12T02:46:12;14.00;79.70
52799;DHT22;38667;42.872;74.622;2023-03-12T02:48:39;13.90;80.00
52799;DHT22;38667;42.872;74.622;2023-03-12T02:51:05;13.80;80.90
52799;DHT22;38667;42.872;74.622;2023-03-12T02:53:32;13.80;81.50
52799;DHT22;38667;42.872;74.622;2023-03-12T02:55:58;13.80;81.50
52799;DHT22;38667;42.872;74.622;2023-03-12T02:58:25;13.70;81.90
52799;DHT22;38667;42.872;74.622;2023-03-12T03:00:52;13.70;82.10
52799;DHT22;38667;42.872;74.622;2023-03-12T03:03:19;13.70;81.70
52799;DHT22;38667;42.872;74.622;2023-03-12T03:05:45;13.70;81.70
52799;DHT22;38667;42.872;74.622;2023-03-12T03:08:11;13.70;81.80
52799;DHT22;38667;42.872;74.622;2023-03-12T03:10:38;13.70;81.50
52799;DHT22;38667;42.872;74.622;2023-03-12T03:13:04;13.70;82.20
52799;DHT22;38667;42.872;74.622;2023-03-12T03:15:30;13.70;81.90
52799;DHT22;38667;42.872;74.622;2023-03-12T03:17:58;13.70;81.50
52799;DHT22;38667;42.872;74.622;2023-03-12T03:20:24;13.70;81.40
52799;DHT22;38667;42.872;74.622;2023-03-12T03:22:51;13.60;81.60
52799;DHT22;38667;42.872;74.622;2023-03-12T03:25:17;13.60;81.90
52799;DHT22;38667;42.872;74.622;2023-03-12T03:27:43;13.60;82.20
52799;DHT22;38667;42.872;74.622;2023-03-12T03:30:10;13.60;82.20
52799;DHT22;38667;42.872;74.622;2023-03-12T03:32:37;13.60;82.60
52799;DHT22;38667;42.872;74.622;2023-03-12T03:35:06;13.60;82.30
52799;DHT22;38667;42.872;74.622;2023-03-12T03:37:32;13.70;82.30
52799;DHT22;38667;42.872;74.622;2023-03-12T03:39:59;13.70;82.10
52799;DHT22;38667;42.872;74.622;2023-03-12T03:42:25;13.80;82.10
52799;DHT22;38667;42.872;74.622;2023-03-12T03:44:52;13.80;81.80
52799;DHT22;38667;42.872;74.622;2023-03-12T03:47:18;13.80;81.90
52799;DHT22;38667;42.872;74.622;2023-03-12T03:49:44;13.80;81.60
52799;DHT22;38667;42.872;74.622;2023-03-12T03:52:12;13.90;81.10
52799;DHT22;38667;42.872;74.622;2023-03-12T03:54:39;14.00;81.20
52799;DHT22;38667;42.872;74.622;2023-03-12T03:57:05;14.10;81.40
52799;DHT22;38667;42.872;74.622;2023-03-12T03:59:31;14.00;81.10
52799;DHT22;38667;42.872;74.622;2023-03-12T04:01:58;14.00;81.60
52799;DHT22;38667;42.872;74.622;2023-03-12T04:04:24;14.00;82.00
52799;DHT22;38667;42.872;74.622;2023-03-12T04:06:50;14.00;81.10
52799;DHT22;38667;42.872;74.622;2023-03-12T04:09:18;14.10;81.30
52799;DHT22;38667;42.872;74.622;2023-03-12T04:11:44;14.10;81.00
52799;DHT22;38667;42.872;74.622;2023-03-12T04:14:11;14.10;81.30
52799;DHT22;38667;42.872;74.622;2023-03-12T04:16:37;14.00;81.40
52799;DHT22;38667;42.872;74.622;2023-03-12T04:19:03;14.00;81.80
52799;DHT22;38667;42.872;74.622;2023-03-12T04:21:30;14.00;81.50
52799;DHT22;38667;42.872;74.622;2023-03-12T04:23:56;13.90;82.30
52799;DHT22;38667;42.872;74.622;2023-03-12T04:26:24;14.00;82.20
52799;DHT22;38667;42.872;74.622;2023-03-12T04:28:50;14.00;82.30
52799;DHT22;38667;42.872;74.622;2023-03-12T04:31:16;14.00;82.10
52799;DHT22;38667;42.872;74.622;2023-03-12T04:33:43;13.90;82.40
52799;DHT22;38667;42.872;74.622;2023-03-12T04:36:10;13.90;82.70
52799;DHT22;38667;42.872;74.622;2023-03-12T04:38:36;13.90;82.80
52799;DHT22;38667;42.872;74.622;2023-03-12T04:41:04;13.80;82.70
52799;DHT22;38667;42.872;74.622;2023-03-12T04:43:32;13.80;82.90
52799;DHT22;38667;42.872;74.622;2023-03-12T04:45:59;13.80;83.20
52799;DHT22;38667;42.872;74.622;2023-03-12T04:48:26;13.80;83.00
52799;DHT22;38667;42.872;74.622;2023-03-12T04:50:52;13.80;82.80
52799;DHT22;38667;42.872;74.622;2023-03-12T04:53:19;13.90;83.00
52799;DHT22;38667;42.872;74.622;2023-03-12T04:55:46;13.90;82.60
52799;DHT22;38667;42.872;74.622;2023-03-12T04:58:12;13.80;83.20
52799;DHT22;38667;42.872;74.622;2023-03-12T05:00:40;13.70;83.90
52799;DHT22;38667;42.872;74.622;2023-03-12T05:03:07;13.80;83.90
52799;DHT22;38667;42.872;74.622;2023-03-12T05:05:33;13.80;83.20
52799;DHT22;38667;42.872;74.622;2023-03-12T05:08:00;13.80;83.20
52799;DHT22;38667;42.872;74.622;2023-03-12T05:10:26;13.80;83.20
52799;DHT22;38667;42.872;74.622;2023-03-12T05:12:52;13.80;83.40
52799;DHT22;38667;42.872;74.622;2023-03-12T05:15:19;13.90;82.80
52799;DHT22;38667;42.872;74.622;2023-03-12T05:17:47;13.90;82.70
52799;DHT22;38667;42.872;74.622;2023-03-12T05:20:13;14.00;82.50
52799;DHT22;38667;42.872;74.622;2023-03-12T05:22:39;14.00;82.00
52799;DHT22;38667;42.872;74.622;2023-03-12T05:25:06;14.10;81.80
52799;DHT22;38667;42.872;74.622;2023-03-12T05:27:33;14.20;81.80
52799;DHT22;38667;42.872;74.622;2023-03-12T05:29:59;14.30;80.90
52799;DHT22;38667;42.872;74.622;2023-03-12T05:32:25;14.40;79.20
52799;DHT22;38667;42.872;74.622;2023-03-12T05:34:53;14.50;79.30
52799;DHT22;38667;42.872;74.622;2023-03-12T05:37:20;14.60;78.90
52799;DHT22;38667;42.872;74.622;2023-03-12T05:39:46;14.70;78.70
52799;DHT22;38667;42.872;74.622;2023-03-12T05:42:13;14.90;78.50
52799;DHT22;38667;42.872;74.622;2023-03-12T05:44:39;15.10;77.20
52799;DHT22;38667;42.872;74.622;2023-03-12T05:47:06;15.30;75.60
52799;DHT22;38667;42.872;74.622;2023-03-12T05:49:32;15.30;75.20
52799;DHT22;38667;42.872;74.622;2023-03-12T05:52:00;15.40;73.90
52799;DHT22;38667;42.872;74.622;2023-03-12T05:54:26;15.30;74.30
52799;DHT22;38667;42.872;74.622;2023-03-12T05:56:53;15.30;75.00
52799;DHT22;38667;42.872;74.622;2023-03-12T05:59:19;15.30;74.90
52799;DHT22;38667;42.872;74.622;2023-03-12T06:01:45;15.40;74.40
52799;DHT22;38667;42.872;74.622;2023-03-12T06:04:12;15.50;73.60
52799;DHT22;38667;42.872;74.622;2023-03-12T06:06:38;15.50;73.10
52799;DHT22;38667;42.872;74.622;2023-03-12T06:09:06;15.50;73.60
52799;DHT22;38667;42.872;74.622;2023-03-12T06:11:33;15.50;73.90
52799;DHT22;38667;42.872;74.622;2023-03-12T06:14:00;15.50;73.70
52799;DHT22;38667;42.872;74.622;2023-03-12T06:16:26;15.70;72.80
52799;DHT22;38667;42.872;74.622;2023-03-12T06:18:53;15.80;71.90
52799;DHT22;38667;42.872;74.622;2023-03-12T06:21:21;15.90;71.30
52799;DHT22;38667;42.872;74.622;2023-03-12T06:23:49;15.90;71.90
52799;DHT22;38667;42.872;74.622;2023-03-12T06:26:17;16.00;71.60
52799;DHT22;38667;42.872;74.622;2023-03-12T06:28:45;16.20;70.70
52799;DHT22;38667;42.872;74.622;2023-03-12T06:31:11;16.30;69.40
52799;DHT22;38667;42.872;74.622;2023-03-12T06:33:38;16.40;69.70
52799;DHT22;38667;42.872;74.622;2023-03-12T06:36:05;16.40;69.90
52799;DHT22;38667;42.872;74.622;2023-03-12T06:38:33;16.40;69.10
52799;DHT22;38667;42.872;74.622;2023-03-12T06:41:01;16.40;69.50
52799;DHT22;38667;42.872;74.622;2023-03-12T06:43:30;16.40;69.70
52799;DHT22;38667;42.872;74.622;2023-03-12T06:45:58;16.50;69.60
52799;DHT22;38667;42.872;74.622;2023-03-12T06:48:25;16.50;69.60
52799;DHT22;38667;42.872;74.622;2023-03-12T06:50:52;16.40;69.50
52799;DHT22;38667;42.872;74.622;2023-03-12T06:53:19;16.30;70.70
52799;DHT22;38667;42.872;74.622;2023-03-12T06:55:45;16.40;70.20
52799;DHT22;38667;42.872;74.622;2023-03-12T06:58:12;16.40;70.80
52799;DHT22;38667;42.872;74.622;2023-03-12T07:00:40;16.40;70.10
52799;DHT22;38667;42.872;74.622;2023-03-12T07:03:07;16.20;71.30
52799;DHT22;38667;42.872;74.622;2023-03-12T07:05:33;16.10;72.50
52799;DHT22;38667;42.872;74.622;2023-03-12T07:07:59;16.00;72.10
52799;DHT22;38667;42.872;74.622;2023-03-12T07:10:26;16.20;72.20
52799;DHT22;38667;42.872;74.622;2023-03-12T07:12:52;16.10;72.20
52799;DHT22;38667;42.872;74.622;2023-03-12T07:15:19;16.00;72.60
52799;DHT22;38667;42.872;74.622;2023-03-12T07:17:47;16.00;72.80
52799;DHT22;38667;42.872;74.622;2023-03-12T07:20:13;15.90;72.90
52799;DHT22;38667;42.872;74.622;2023-03-12T07:22:39;15.90;73.00
52799;DHT22;38667;42.872;74.622;2023-03-12T07:25:06;15.80;73.90
52799;DHT22;38667;42.872;74.622;2023-03-12T07:27:33;15.70;74.60
52799;DHT22;38667;42.872;74.622;2023-03-12T07:29:59;15.70;74.60
52799;DHT22;38667;42.872;74.622;2023-03-12T07:32:26;15.70;75.10
52799;DHT22;38667;42.872;74.622;2023-03-12T07:34:53;15.60;75.40
52799;DHT22;38667;42.872;74.622;2023-03-12T07:37:20;15.50;75.90
52799;DHT22;38667;42.872;74.622;2023-03-12T07:39:46;15.50;76.30
52799;DHT22;38667;42.872;74.622;2023-03-12T07:42:13;15.40;76.20
52799;DHT22;38667;42.872;74.622;2023-03-12T07:44:39;15.40;75.80
52799;DHT22;38667;42.872;74.622;2023-03-12T07:47:05;15.40;76.30
52799;DHT22;38667;42.872;74.622;2023-03-12T07:49:32;15.50;75.90
52799;DHT22;38667;42.872;74.622;2023-03-12T07:51:59;15.50;75.60
52799;DHT22;38667;42.872;74.622;2023-03-12T07:54:26;15.50;75.90
52799;DHT22;38667;42.872;74.622;2023-03-12T07:56:52;15.50;76.60
52799;DHT22;38667;42.872;74.622;2023-03-12T07:59:18;15.30;77.40
52799;DHT22;38667;42.872;74.622;2023-03-12T08:01:44;15.20;78.20
52799;DHT22;38667;42.872;74.622;2023-03-12T08:04:11;15.20;78.40
52799;DHT22;38667;42.872;74.622;2023-03-12T08:06:37;15.10;78.50
52799;DHT22;38667;42.872;74.622;2023-03-12T08:09:05;15.00;79.10
52799;DHT22;38667;42.872;74.622;2023-03-12T08:11:31;14.90;79.70
52799;DHT22;38667;42.872;74.622;2023-03-12T08:13:57;14.90;80.20
52799;DHT22;38667;42.872;74.622;2023-03-12T08:16:24;14.80;80.70
52799;DHT22;38667;42.872;74.622;2023-03-12T08:18:50;14.80;80.80
52799;DHT22;38667;42.872;74.622;2023-03-12T08:21:16;14.70;81.30
52799;DHT22;38667;42.872;74.622;2023-03-12T08:23:43;14.70;81.10
52799;DHT22;38667;42.872;74.622;2023-03-12T08:26:11;14.80;81.30
52799;DHT22;38667;42.872;74.622;2023-03-12T08:28:37;14.80;81.60
52799;DHT22;38667;42.872;74.622;2023-03-12T08:31:04;14.80;81.60
52799;DHT22;38667;42.872;74.622;2023-03-12T08:33:30;14.90;81.30
52799;DHT22;38667;42.872;74.622;2023-03-12T08:35:56;14.90;81.40
52799;DHT22;38667;42.872;74.622;2023-03-12T08:38:23;14.90;81.20
52799;DHT22;38667;42.872;74.622;2023-03-12T08:40:56;14.90;81.30
52799;DHT22;38667;42.872;74.622;2023-03-12T08:43:24;14.80;82.20
52799;DHT22;38667;42.872;74.622;2023-03-12T08:45:53;14.70;83.50
52799;DHT22;38667;42.872;74.622;2023-03-12T08:48:20;14.50;85.10
52799;DHT22;38667;42.872;74.622;2023-03-12T08:50:46;14.40;85.90
52799;DHT22;38667;42.872;74.622;2023-03-12T08:53:12;14.20;87.00
52799;DHT22;38667;42.872;74.622;2023-03-12T08:55:39;14.00;88.70
52799;DHT22;38667;42.872;74.622;2023-03-12T08:58:05;14.00;89.40
52799;DHT22;38667;42.872;74.622;2023-03-12T09:00:33;14.00;89.10
52799;DHT22;38667;42.872;74.622;2023-03-12T09:02:59;13.90;89.10
52799;DHT22;38667;42.872;74.622;2023-03-12T09:05:26;13.80;89.10
52799;DHT22;38667;42.872;74.622;2023-03-12T09:07:52;13.70;89.70
52799;DHT22;38667;42.872;74.622;2023-03-12T09:10:18;13.60;90.90
52799;DHT22;38667;42.872;74.622;2023-03-12T09:12:45;13.60;91.80
52799;DHT22;38667;42.872;74.622;2023-03-12T09:15:11;13.50;92.40
52799;DHT22;38667;42.872;74.622;2023-03-12T09:17:39;13.50;93.70
52799;DHT22;38667;42.872;74.622;2023-03-12T09:20:08;13.50;93.30
52799;DHT22;38667;42.872;74.622;2023-03-12T09:22:35;13.60;93.00
52799;DHT22;38667;42.872;74.622;2023-03-12T09:25:02;13.70;92.70
52799;DHT22;38667;42.872;74.622;2023-03-12T09:27:28;13.60;93.20
52799;DHT22;38667;42.872;74.622;2023-03-12T09:29:55;13.60;94.90
52799;DHT22;38667;42.872;74.622;2023-03-12T09:32:21;13.60;95.30
52799;DHT22;38667;42.872;74.622;2023-03-12T09:34:49;13.50;95.60
52799;DHT22;38667;42.872;74.622;2023-03-12T09:37:16;13.40;97.60
52799;DHT22;38667;42.872;74.622;2023-03-12T09:39:42;13.30;99.90
52799;DHT22;38667;42.872;74.622;2023-03-12T09:42:17;13.40;99.90
52799;DHT22;38667;42.872;74.622;2023-03-12T09:44:46;13.30;99.90
52799;DHT22;38667;42.872;74.622;2023-03-12T09:47:21;13.20;99.90
52799;DHT22;38667;42.872;74.622;2023-03-12T09:49:53;13.20;99.90
52799;DHT22;38667;42.872;74.622;2023-03-12T09:52:26;13.10;99.90
52799;DHT22;38667;42.872;74.622;2023-03-12T09:54:59;13.20;99.90
52799;DHT22;38667;42.872;74.622;2023-03-12T09:57:28;13.20;99.90
52799;DHT22;38667;42.872;74.622;2023-03-12T09:59:54;13.10;99.90
52799;DHT22;38667;42.872;74.622;2023-03-12T10:02:39;13.10;99.90
52799;DHT22;38667;42.872;74.622;2023-03-12T10:05:13;13.00;99.90
52799;DHT22;38667;42.872;74.622;2023-03-12T10:07:47;13.00;99.90
52799;DHT22;38667;42.872;74.622;2023-03-12T10:10:30;12.90;99.90
52799;DHT22;38667;42.872;74.622;2023-03-12T10:13:19;12.90;99.90
52799;DHT22;38667;42.872;74.622;2023-03-12T10:15:59;12.90;99.90
52799;DHT22;38667;42.872;74.622;2023-03-12T10:18:37;12.80;99.90
52799;DHT22;38667;42.872;74.622;2023-03-12T10:21:15;12.70;99.90
52799;DHT22;38667;42.872;74.622;2023-03-12T10:23:56;12.70;99.90
52799;DHT22;38667;42.872;74.622;2023-03-12T10:26:29;12.60;99.90
52799;DHT22;38667;42.872;74.622;2023-03-12T10:28:59;12.60;99.90
52799;DHT22;38667;42.872;74.622;2023-03-12T10:31:29;12.50;99.90
52799;DHT22;38667;42.872;74.622;2023-03-12T10:33:58;12.50;99.90
52799;DHT22;38667;42.872;74.622;2023-03-12T10:36:31;12.50;99.90
52799;DHT22;38667;42.872;74.622;2023-03-12T10:38:59;12.50;99.90
52799;DHT22;38667;42.872;74.622;2023-03-12T10:41:29;12.50;99.90
52799;DHT22;38667;42.872;74.622;2023-03-12T10:43:59;12.50;99.90
52799;DHT22;38667;42.872;74.622;2023-03-12T10:47:01;12.30;99.90
52799;DHT22;38667;42.872;74.622;2023-03-12T10:49:32;12.30;99.90
52799;DHT22;38667;42.872;74.622;2023-03-12T10:52:03;12.20;99.90
52799;DHT22;38667;42.872;74.622;2023-03-12T10:54:32;12.30;99.90
52799;DHT22;38667;42.872;74.622;2023-03-12T10:57:00;12.20;99.90
52799;DHT22;38667;42.872;74.622;2023-03-12T10:59:28;12.30;99.90
52799;DHT22;38667;42.872;74.622;2023-03-12T11:01:56;12.30;99.90
52799;DHT22;38667;42.872;74.622;2023-03-12T11:04:24;12.30;99.90
52799;DHT22;38667;42.872;74.622;2023-03-12T11:07:18;12.30;99.90
52799;DHT22;38667;42.872;74.622;2023-03-12T11:09:51;12.30;99.90
52799;DHT22;38667;42.872;74.622;2023-03-12T11:12:29;12.20;99.90
52799;DHT22;38667;42.872;74.622;2023-03-12T11:14:55;12.20;99.90
52799;DHT22;38667;42.872;74.622;2023-03-12T11:17:24;12.20;99.90
52799;DHT22;38667;42.872;74.622;2023-03-12T11:19:51;12.10;99.90
52799;DHT22;38667;42.872;74.622;2023-03-12T11:22:29;12.10;99.90
52799;DHT22;38667;42.872;74.622;2023-03-12T11:24:57;12.10;99.90
52799;DHT22;38667;42.872;74.622;2023-03-12T11:27:34;12.10;99.90
52799;DHT22;38667;42.872;74.622;2023-03-12T11:30:03;12.10;99.90
52799;DHT22;38667;42.872;74.622;2023-03-12T11:32:33;12.00;99.90
52799;DHT22;38667;42.872;74.622;2023-03-12T11:35:00;12.00;99.90
52799;DHT22;38667;42.872;74.622;2023-03-12T11:37:35;12.00;99.90
52799;DHT22;38667;42.872;74.622;2023-03-12T11:40:16;12.00;99.90
52799;DHT22;38667;42.872;74.622;2023-03-12T11:43:02;11.90;99.90
52799;DHT22;38667;42.872;74.622;2023-03-12T11:45:43;11.90;99.90
52799;DHT22;38667;42.872;74.622;2023-03-12T11:48:17;11.90;99.90
52799;DHT22;38667;42.872;74.622;2023-03-12T11:50:56;11.90;99.90
52799;DHT22;38667;42.872;74.622;2023-03-12T11:53:36;11.90;99.90
52799;DHT22;38667;42.872;74.622;2023-03-12T11:56:17;11.80;99.90
52799;DHT22;38667;42.872;74.622;2023-03-12T11:58:53;11.80;99.90
52799;DHT22;38667;42.872;74.622;2023-03-12T12:01:28;11.70;99.90
52799;DHT22;38667;42.872;74.622;2023-03-12T12:04:17;11.80;99.90
52799;DHT22;38667;42.872;74.622;2023-03-12T12:06:56;11.60;99.90
52799;DHT22;38667;42.872;74.622;2023-03-12T12:09:35;11.50;99.90
52799;DHT22;38667;42.872;74.622;2023-03-12T12:12:15;11.30;99.90
52799;DHT22;38667;42.872;74.622;2023-03-12T12:15:01;11.30;99.90
52799;DHT22;38667;42.872;74.622;2023-03-12T12:17:39;11.20;99.90
52799;DHT22;38667;42.872;74.622;2023-03-12T12:20:24;11.20;99.90
52799;DHT22;38667;42.872;74.622;2023-03-12T12:23:01;11.10;99.90
52799;DHT22;38667;42.872;74.622;2023-03-12T12:25:55;11.00;99.90
52799;DHT22;38667;42.872;74.622;2023-03-12T12:28:36;10.90;99.90
52799;DHT22;38667;42.872;74.622;2023-03-12T12:31:14;10.90;99.90
52799;DHT22;38667;42.872;74.622;2023-03-12T12:34:10;10.80;99.90
52799;DHT22;38667;42.872;74.622;2023-03-12T12:36:38;10.70;99.90
52799;DHT22;38667;42.872;74.622;2023-03-12T12:39:09;10.70;99.90
52799;DHT22;38667;42.872;74.622;2023-03-12T12:41:40;10.60;99.90
52799;DHT22;38667;42.872;74.622;2023-03-12T12:44:11;10.60;99.90
52799;DHT22;38667;42.872;74.622;2023-03-12T12:46:41;10.60;99.90
52799;DHT22;38667;42.872;74.622;2023-03-12T12:49:12;10.60;99.90
52799;DHT22;38667;42.872;74.622;2023-03-12T12:51:42;10.60;99.90
52799;DHT22;38667;42.872;74.622;2023-03-12T12:54:16;10.60;99.90
52799;DHT22;38667;42.872;74.622;2023-03-12T12:56:49;10.60;99.90
52799;DHT22;38667;42.872;74.622;2023-03-12T12:59:25;10.60;99.90
52799;DHT22;38667;42.872;74.622;2023-03-12T13:01:54;10.60;99.90
52799;DHT22;38667;42.872;74.622;2023-03-12T13:04:25;10.60;99.90
52799;DHT22;38667;42.872;74.622;2023-03-12T13:06:57;10.60;99.90
52799;DHT22;38667;42.872;74.622;2023-03-12T13:09:35;10.50;99.90
52799;DHT22;38667;42.872;74.622;2023-03-12T13:12:17;10.60;99.90
52799;DHT22;38667;42.872;74.622;2023-03-12T13:14:44;10.50;99.90
52799;DHT22;38667;42.872;74.622;2023-03-12T13:17:26;10.50;99.90
52799;DHT22;38667;42.872;74.622;2023-03-12T13:19:58;10.50;99.90
52799;DHT22;38667;42.872;74.622;2023-03-12T13:22:37;10.50;99.90
52799;DHT22;38667;42.872;74.622;2023-03-12T13:25:17;10.40;99.90
52799;DHT22;38667;42.872;74.622;2023-03-12T13:27:57;10.40;99.90
52799;DHT22;38667;42.872;74.622;2023-03-12T13:30:46;10.40;99.90
52799;DHT22;38667;42.872;74.622;2023-03-12T13:33:15;10.30;99.90
52799;DHT22;38667;42.872;74.622;2023-03-12T13:35:42;10.20;99.90
52799;DHT22;38667;42.872;74.622;2023-03-12T13:38:17;10.20;99.90
52799;DHT22;38667;42.872;74.622;2023-03-12T13:40:59;10.10;99.90
52799;DHT22;38667;42.872;74.622;2023-03-12T13:43:50;10.00;99.90
52799;DHT22;38667;42.872;74.622;2023-03-12T13:46:26;9.90;99.90
52799;DHT22;38667;42.872;74.622;2023-03-12T13:48:58;9.80;99.90
52799;DHT22;38667;42.872;74.622;2023-03-12T13:51:25;9.90;99.90
52799;DHT22;38667;42.872;74.622;2023-03-12T13:53:54;9.90;99.90
52799;DHT22;38667;42.872;74.622;2023-03-12T13:56:26;9.90;99.90
52799;DHT22;38667;42.872;74.622;2023-03-12T13:58:58;9.80;99.90
52799;DHT22;38667;42.872;74.622;2023-03-12T14:01:28;9.80;99.90
52799;DHT22;38667;42.872;74.622;2023-03-12T14:03:56;9.70;99.90
52799;DHT22;38667;42.872;74.622;2023-03-12T14:06:26;9.70;99.90
52799;DHT22;38667;42.872;74.622;2023-03-12T14:09:04;9.70;99.90
52799;DHT22;38667;42.872;74.622;2023-03-12T14:11:43;9.70;99.90
52799;DHT22;38667;42.872;74.622;2023-03-12T14:14:39;9.80;99.90
52799;DHT22;38667;42.872;74.622;2023-03-12T14:17:17;9.70;99.90
52799;DHT22;38667;42.872;74.622;2023-03-12T14:19:46;9.70;99.90
52799;DHT22;38667;42.872;74.622;2023-03-12T14:22:14;9.70;99.90
52799;DHT22;38667;42.872;74.622;2023-03-12T14:24:47;9.70;99.90
52799;DHT22;38667;42.872;74.622;2023-03-12T14:27:19;9.70;99.90
52799;DHT22;38667;42.872;74.622;2023-03-12T14:29:52;9.70;99.90
52799;DHT22;38667;42.872;74.622;2023-03-12T14:32:24;9.70;99.90
52799;DHT22;38667;42.872;74.622;2023-03-12T14:34:56;9.70;99.90
52799;DHT22;38667;42.872;74.622;2023-03-12T14:37:27;9.60;99.90
52799;DHT22;38667;42.872;74.622;2023-03-12T14:39:57;9.60;99.90
52799;DHT22;38667;42.872;74.622;2023-03-12T14:42:28;9.50;99.90
52799;DHT22;38667;42.872;74.622;2023-03-12T14:44:58;9.50;99.90
52799;DHT22;38667;42.872;74.622;2023-03-12T14:47:24;9.40;99.90
52799;DHT22;38667;42.872;74.622;2023-03-12T14:49:51;9.40;99.90
52799;DHT22;38667;42.872;74.622;2023-03-12T14:52:21;9.40;99.90
52799;DHT22;38667;42.872;74.622;2023-03-12T14:54:55;9.40;99.90
52799;DHT22;38667;42.872;74.622;2023-03-12T14:57:22;9.40;99.90
52799;DHT22;38667;42.872;74.622;2023-03-12T14:59:52;9.40;99.90
52799;DHT22;38667;42.872;74.622;2023-03-12T15:02:20;9.50;99.90
52799;DHT22;38667;42.872;74.622;2023-03-12T15:04:48;9.40;99.90
52799;DHT22;38667;42.872;74.622;2023-03-12T15:07:18;9.50;99.90
52799;DHT22;38667;42.872;74.622;2023-03-12T15:09:49;9.50;99.90
52799;DHT22;38667;42.872;74.622;2023-03-12T15:12:19;9.50;99.90
52799;DHT22;38667;42.872;74.622;2023-03-12T15:14:48;9.60;99.90
52799;DHT22;38667;42.872;74.622;2023-03-12T15:17:16;9.50;99.90
52799;DHT22;38667;42.872;74.622;2023-03-12T15:19:45;9.50;99.90
52799;DHT22;38667;42.872;74.622;2023-03-12T15:22:14;9.60;99.90
52799;DHT22;38667;42.872;74.622;2023-03-12T15:24:41;9.50;99.90
52799;DHT22;38667;42.872;74.622;2023-03-12T15:27:29;9.50;99.90
52799;DHT22;38667;42.872;74.622;2023-03-12T15:29:57;9.50;99.90
52799;DHT22;38667;42.872;74.622;2023-03-12T15:32:25;9.40;99.90